sensor_id;sensor_type;location;lat;lon;timestamp;P1;durP1;ratioP1;P2;durP2;ratioP2
12296;SDS011;6211;49.124;9.152;2023-08-17T00:01:56;6.38;;;4.13;;
12296;SDS011;6211;49.124;9.152;2023-08-17T00:04:23;5.10;;;4.00;;
12296;SDS011;6211;49.124;9.152;2023-08-17T00:06:52;6.13;;;4.05;;
12296;SDS011;6211;49.124;9.152;2023-08-17T00:09:19;4.78;;;4.20;;
12296;SDS011;6211;49.124;9.152;2023-08-17T00:11:47;5.63;;;4.55;;
12296;SDS011;6211;49.124;9.152;2023-08-17T00:14:14;4.50;;;4.10;;
12296;SDS011;6211;49.124;9.152;2023-08-17T00:16:41;10.20;;;4.53;;
12296;SDS011;6211;49.124;9.152;2023-08-17T00:19:08;4.90;;;4.40;;
12296;SDS011;6211;49.124;9.152;2023-08-17T00:21:35;4.93;;;4.35;;
12296;SDS011;6211;49.124;9.152;2023-08-17T00:24:04;7.13;;;4.70;;
12296;SDS011;6211;49.124;9.152;2023-08-17T00:26:31;5.93;;;4.25;;
12296;SDS011;6211;49.124;9.152;2023-08-17T00:28:58;5.97;;;4.55;;
12296;SDS011;6211;49.124;9.152;2023-08-17T00:31:25;5.38;;;4.18;;
12296;SDS011;6211;49.124;9.152;2023-08-17T00:33:52;5.38;;;4.55;;
12296;SDS011;6211;49.124;9.152;2023-08-17T00:36:20;6.00;;;4.57;;
12296;SDS011;6211;49.124;9.152;2023-08-17T00:38:47;6.20;;;4.65;;
12296;SDS011;6211;49.124;9.152;2023-08-17T00:41:15;7.05;;;5.07;;
12296;SDS011;6211;49.124;9.152;2023-08-17T00:43:42;10.02;;;4.65;;
12296;SDS011;6211;49.124;9.152;2023-08-17T00:46:10;4.97;;;4.47;;
12296;SDS011;6211;49.124;9.152;2023-08-17T00:48:37;5.35;;;4.72;;
12296;SDS011;6211;49.124;9.152;2023-08-17T00:51:04;5.57;;;3.97;;
12296;SDS011;6211;49.124;9.152;2023-08-17T00:53:31;6.22;;;3.80;;
12296;SDS011;6211;49.124;9.152;2023-08-17T00:55:59;5.18;;;4.28;;
12296;SDS011;6211;49.124;9.152;2023-08-17T00:58:28;5.75;;;4.00;;
12296;SDS011;6211;49.124;9.152;2023-08-17T01:00:55;5.70;;;3.85;;
12296;SDS011;6211;49.124;9.152;2023-08-17T01:03:22;4.35;;;3.53;;
12296;SDS011;6211;49.124;9.152;2023-08-17T01:05:49;5.93;;;3.55;;
12296;SDS011;6211;49.124;9.152;2023-08-17T01:08:17;5.75;;;3.67;;
12296;SDS011;6211;49.124;9.152;2023-08-17T01:10:51;5.53;;;3.28;;
12296;SDS011;6211;49.124;9.152;2023-08-17T01:13:21;3.70;;;2.75;;
12296;SDS011;6211;49.124;9.152;2023-08-17T01:15:52;3.30;;;2.95;;
12296;SDS011;6211;49.124;9.152;2023-08-17T01:18:21;3.45;;;2.97;;
12296;SDS011;6211;49.124;9.152;2023-08-17T01:20:50;2.83;;;2.50;;
12296;SDS011;6211;49.124;9.152;2023-08-17T01:23:20;3.63;;;2.45;;
12296;SDS011;6211;49.124;9.152;2023-08-17T01:25:47;3.13;;;2.47;;
12296;SDS011;6211;49.124;9.152;2023-08-17T01:28:14;3.35;;;2.35;;
12296;SDS011;6211;49.124;9.152;2023-08-17T01:30:44;2.70;;;2.20;;
12296;SDS011;6211;49.124;9.152;2023-08-17T01:33:14;2.50;;;2.28;;
12296;SDS011;6211;49.124;9.152;2023-08-17T01:35:45;2.42;;;2.22;;
12296;SDS011;6211;49.124;9.152;2023-08-17T01:38:14;4.32;;;2.45;;
12296;SDS011;6211;49.124;9.152;2023-08-17T01:40:44;3.95;;;2.50;;
12296;SDS011;6211;49.124;9.152;2023-08-17T01:43:11;2.83;;;2.33;;
12296;SDS011;6211;49.124;9.152;2023-08-17T01:45:39;2.45;;;2.25;;
12296;SDS011;6211;49.124;9.152;2023-08-17T01:48:06;2.70;;;2.08;;
12296;SDS011;6211;49.124;9.152;2023-08-17T01:50:33;3.67;;;2.13;;
12296;SDS011;6211;49.124;9.152;2023-08-17T01:53:00;2.92;;;2.17;;
12296;SDS011;6211;49.124;9.152;2023-08-17T01:55:28;2.78;;;2.10;;
12296;SDS011;6211;49.124;9.152;2023-08-17T01:57:56;2.88;;;1.98;;
12296;SDS011;6211;49.124;9.152;2023-08-17T02:00:23;4.28;;;2.08;;
12296;SDS011;6211;49.124;9.152;2023-08-17T02:02:50;2.92;;;1.90;;
12296;SDS011;6211;49.124;9.152;2023-08-17T02:05:17;2.50;;;2.08;;
12296;SDS011;6211;49.124;9.152;2023-08-17T02:07:45;2.67;;;2.22;;
12296;SDS011;6211;49.124;9.152;2023-08-17T02:10:12;3.72;;;2.15;;
12296;SDS011;6211;49.124;9.152;2023-08-17T02:12:39;2.38;;;2.17;;
12296;SDS011;6211;49.124;9.152;2023-08-17T02:15:08;2.17;;;1.98;;
12296;SDS011;6211;49.124;9.152;2023-08-17T02:17:35;2.00;;;1.77;;
12296;SDS011;6211;49.124;9.152;2023-08-17T02:20:03;2.65;;;1.90;;
12296;SDS011;6211;49.124;9.152;2023-08-17T02:22:30;2.58;;;2.20;;
12296;SDS011;6211;49.124;9.152;2023-08-17T02:24:57;3.47;;;2.00;;
12296;SDS011;6211;49.124;9.152;2023-08-17T02:27:24;2.05;;;1.90;;
12296;SDS011;6211;49.124;9.152;2023-08-17T02:29:51;3.70;;;2.15;;
12296;SDS011;6211;49.124;9.152;2023-08-17T02:32:20;1.80;;;1.63;;
12296;SDS011;6211;49.124;9.152;2023-08-17T02:34:47;5.13;;;2.13;;
12296;SDS011;6211;49.124;9.152;2023-08-17T02:37:14;1.52;;;1.42;;
12296;SDS011;6211;49.124;9.152;2023-08-17T02:39:47;3.05;;;2.22;;
12296;SDS011;6211;49.124;9.152;2023-08-17T02:42:14;2.33;;;1.70;;
12296;SDS011;6211;49.124;9.152;2023-08-17T02:44:41;2.30;;;2.08;;
12296;SDS011;6211;49.124;9.152;2023-08-17T02:47:08;2.33;;;1.70;;
12296;SDS011;6211;49.124;9.152;2023-08-17T02:49:36;2.30;;;1.83;;
12296;SDS011;6211;49.124;9.152;2023-08-17T02:52:03;3.30;;;1.70;;
12296;SDS011;6211;49.124;9.152;2023-08-17T02:54:31;3.47;;;2.10;;
12296;SDS011;6211;49.124;9.152;2023-08-17T02:56:58;5.07;;;2.30;;
12296;SDS011;6211;49.124;9.152;2023-08-17T02:59:26;2.10;;;1.90;;
12296;SDS011;6211;49.124;9.152;2023-08-17T03:01:53;2.60;;;1.88;;
12296;SDS011;6211;49.124;9.152;2023-08-17T03:04:21;1.95;;;1.70;;
12296;SDS011;6211;49.124;9.152;2023-08-17T03:06:49;1.73;;;1.63;;
12296;SDS011;6211;49.124;9.152;2023-08-17T03:09:16;1.95;;;1.80;;
12296;SDS011;6211;49.124;9.152;2023-08-17T03:11:43;2.20;;;2.00;;
12296;SDS011;6211;49.124;9.152;2023-08-17T03:14:10;2.20;;;2.00;;
12296;SDS011;6211;49.124;9.152;2023-08-17T03:16:37;3.28;;;1.80;;
12296;SDS011;6211;49.124;9.152;2023-08-17T03:19:05;4.05;;;2.10;;
12296;SDS011;6211;49.124;9.152;2023-08-17T03:21:35;4.07;;;2.20;;
12296;SDS011;6211;49.124;9.152;2023-08-17T03:24:05;3.08;;;2.10;;
12296;SDS011;6211;49.124;9.152;2023-08-17T03:26:32;2.20;;;2.00;;
12296;SDS011;6211;49.124;9.152;2023-08-17T03:28:59;2.38;;;1.77;;
12296;SDS011;6211;49.124;9.152;2023-08-17T03:31:26;3.75;;;2.15;;
12296;SDS011;6211;49.124;9.152;2023-08-17T03:33:53;2.58;;;2.22;;
12296;SDS011;6211;49.124;9.152;2023-08-17T03:36:21;1.75;;;1.65;;
12296;SDS011;6211;49.124;9.152;2023-08-17T03:38:48;2.85;;;2.15;;
12296;SDS011;6211;49.124;9.152;2023-08-17T03:41:17;2.80;;;2.05;;
12296;SDS011;6211;49.124;9.152;2023-08-17T03:43:44;2.60;;;2.00;;
12296;SDS011;6211;49.124;9.152;2023-08-17T03:46:11;2.20;;;2.00;;
12296;SDS011;6211;49.124;9.152;2023-08-17T03:48:38;2.10;;;1.90;;
12296;SDS011;6211;49.124;9.152;2023-08-17T03:51:05;2.88;;;2.38;;
12296;SDS011;6211;49.124;9.152;2023-08-17T03:53:32;6.85;;;2.15;;
12296;SDS011;6211;49.124;9.152;2023-08-17T03:55:59;2.08;;;1.90;;
12296;SDS011;6211;49.124;9.152;2023-08-17T03:58:28;3.15;;;1.90;;
12296;SDS011;6211;49.124;9.152;2023-08-17T04:00:59;3.00;;;2.20;;
12296;SDS011;6211;49.124;9.152;2023-08-17T04:03:26;2.10;;;1.90;;
12296;SDS011;6211;49.124;9.152;2023-08-17T04:05:53;4.30;;;1.90;;
12296;SDS011;6211;49.124;9.152;2023-08-17T04:08:20;2.33;;;1.85;;
12296;SDS011;6211;49.124;9.152;2023-08-17T04:10:47;2.38;;;1.92;;
12296;SDS011;6211;49.124;9.152;2023-08-17T04:13:14;2.28;;;2.08;;
12296;SDS011;6211;49.124;9.152;2023-08-17T04:15:43;3.08;;;2.30;;
12296;SDS011;6211;49.124;9.152;2023-08-17T04:18:10;3.15;;;2.03;;
12296;SDS011;6211;49.124;9.152;2023-08-17T04:20:38;2.40;;;2.20;;
12296;SDS011;6211;49.124;9.152;2023-08-17T04:23:05;2.45;;;2.17;;
12296;SDS011;6211;49.124;9.152;2023-08-17T04:25:32;2.28;;;2.00;;
12296;SDS011;6211;49.124;9.152;2023-08-17T04:27:59;2.25;;;2.05;;
12296;SDS011;6211;49.124;9.152;2023-08-17T04:30:26;2.58;;;1.90;;
12296;SDS011;6211;49.124;9.152;2023-08-17T04:32:54;2.72;;;2.13;;
12296;SDS011;6211;49.124;9.152;2023-08-17T04:35:22;3.42;;;2.22;;
12296;SDS011;6211;49.124;9.152;2023-08-17T04:37:49;2.53;;;2.33;;
12296;SDS011;6211;49.124;9.152;2023-08-17T04:40:16;2.97;;;2.17;;
12296;SDS011;6211;49.124;9.152;2023-08-17T04:42:43;3.85;;;2.50;;
12296;SDS011;6211;49.124;9.152;2023-08-17T04:45:10;2.50;;;2.30;;
12296;SDS011;6211;49.124;9.152;2023-08-17T04:47:37;3.75;;;1.98;;
12296;SDS011;6211;49.124;9.152;2023-08-17T04:50:06;3.50;;;2.30;;
12296;SDS011;6211;49.124;9.152;2023-08-17T04:52:34;3.53;;;2.90;;
12296;SDS011;6211;49.124;9.152;2023-08-17T04:55:01;3.67;;;2.40;;
12296;SDS011;6211;49.124;9.152;2023-08-17T04:57:28;4.00;;;2.30;;
12296;SDS011;6211;49.124;9.152;2023-08-17T04:59:55;2.88;;;2.50;;
12296;SDS011;6211;49.124;9.152;2023-08-17T05:02:23;3.05;;;2.30;;
12296;SDS011;6211;49.124;9.152;2023-08-17T05:04:50;2.30;;;2.10;;
12296;SDS011;6211;49.124;9.152;2023-08-17T05:07:18;3.90;;;2.28;;
12296;SDS011;6211;49.124;9.152;2023-08-17T05:09:45;2.72;;;2.30;;
12296;SDS011;6211;49.124;9.152;2023-08-17T05:12:12;2.42;;;1.83;;
12296;SDS011;6211;49.124;9.152;2023-08-17T05:14:39;2.67;;;2.35;;
12296;SDS011;6211;49.124;9.152;2023-08-17T05:17:06;2.75;;;2.20;;
12296;SDS011;6211;49.124;9.152;2023-08-17T05:19:33;3.22;;;2.55;;
12296;SDS011;6211;49.124;9.152;2023-08-17T05:22:03;3.78;;;2.75;;
12296;SDS011;6211;49.124;9.152;2023-08-17T05:24:31;2.83;;;2.60;;
12296;SDS011;6211;49.124;9.152;2023-08-17T05:26:58;4.10;;;2.60;;
12296;SDS011;6211;49.124;9.152;2023-08-17T05:29:25;3.78;;;2.55;;
12296;SDS011;6211;49.124;9.152;2023-08-17T05:31:53;2.50;;;2.20;;
12296;SDS011;6211;49.124;9.152;2023-08-17T05:34:20;4.55;;;2.20;;
12296;SDS011;6211;49.124;9.152;2023-08-17T05:36:47;3.30;;;2.20;;
12296;SDS011;6211;49.124;9.152;2023-08-17T05:39:14;2.50;;;2.20;;
12296;SDS011;6211;49.124;9.152;2023-08-17T05:41:43;4.57;;;2.80;;
12296;SDS011;6211;49.124;9.152;2023-08-17T05:44:10;2.55;;;2.33;;
12296;SDS011;6211;49.124;9.152;2023-08-17T05:46:39;2.83;;;2.53;;
12296;SDS011;6211;49.124;9.152;2023-08-17T05:49:06;5.15;;;2.63;;
12296;SDS011;6211;49.124;9.152;2023-08-17T05:51:33;3.08;;;2.17;;
12296;SDS011;6211;49.124;9.152;2023-08-17T05:54:00;3.75;;;2.60;;
12296;SDS011;6211;49.124;9.152;2023-08-17T05:56:28;2.83;;;2.40;;
12296;SDS011;6211;49.124;9.152;2023-08-17T05:58:56;3.38;;;2.38;;
12296;SDS011;6211;49.124;9.152;2023-08-17T06:01:23;3.05;;;2.38;;
12296;SDS011;6211;49.124;9.152;2023-08-17T06:03:51;7.90;;;2.60;;
12296;SDS011;6211;49.124;9.152;2023-08-17T06:06:18;2.35;;;2.15;;
12296;SDS011;6211;49.124;9.152;2023-08-17T06:08:45;2.45;;;2.25;;
12296;SDS011;6211;49.124;9.152;2023-08-17T06:11:12;2.30;;;2.03;;
12296;SDS011;6211;49.124;9.152;2023-08-17T06:13:39;2.55;;;2.20;;
12296;SDS011;6211;49.124;9.152;2023-08-17T06:16:07;2.53;;;2.33;;
12296;SDS011;6211;49.124;9.152;2023-08-17T06:18:35;3.28;;;2.90;;
12296;SDS011;6211;49.124;9.152;2023-08-17T06:21:03;5.60;;;2.38;;
12296;SDS011;6211;49.124;9.152;2023-08-17T06:23:30;2.50;;;2.30;;
12296;SDS011;6211;49.124;9.152;2023-08-17T06:25:57;3.13;;;2.30;;
12296;SDS011;6211;49.124;9.152;2023-08-17T06:28:24;4.03;;;2.40;;
12296;SDS011;6211;49.124;9.152;2023-08-17T06:30:52;8.25;;;2.47;;
12296;SDS011;6211;49.124;9.152;2023-08-17T06:33:20;4.20;;;2.47;;
12296;SDS011;6211;49.124;9.152;2023-08-17T06:35:48;4.95;;;2.70;;
12296;SDS011;6211;49.124;9.152;2023-08-17T06:38:15;3.88;;;2.80;;
12296;SDS011;6211;49.124;9.152;2023-08-17T06:40:42;3.97;;;3.00;;
12296;SDS011;6211;49.124;9.152;2023-08-17T06:43:09;4.70;;;2.85;;
12296;SDS011;6211;49.124;9.152;2023-08-17T06:45:36;4.88;;;2.72;;
12296;SDS011;6211;49.124;9.152;2023-08-17T06:48:04;3.45;;;2.38;;
12296;SDS011;6211;49.124;9.152;2023-08-17T06:50:32;5.30;;;3.20;;
12296;SDS011;6211;49.124;9.152;2023-08-17T06:53:00;3.28;;;2.97;;
12296;SDS011;6211;49.124;9.152;2023-08-17T06:55:27;4.45;;;3.40;;
12296;SDS011;6211;49.124;9.152;2023-08-17T06:57:54;3.50;;;3.20;;
12296;SDS011;6211;49.124;9.152;2023-08-17T07:00:21;5.32;;;3.35;;
12296;SDS011;6211;49.124;9.152;2023-08-17T07:02:49;3.92;;;2.78;;
12296;SDS011;6211;49.124;9.152;2023-08-17T07:05:17;4.03;;;2.88;;
12296;SDS011;6211;49.124;9.152;2023-08-17T07:07:45;5.45;;;3.00;;
12296;SDS011;6211;49.124;9.152;2023-08-17T07:10:13;3.50;;;3.05;;
12296;SDS011;6211;49.124;9.152;2023-08-17T07:12:40;3.72;;;3.05;;
12296;SDS011;6211;49.124;9.152;2023-08-17T07:15:07;3.90;;;3.13;;
12296;SDS011;6211;49.124;9.152;2023-08-17T07:17:34;3.90;;;3.50;;
12296;SDS011;6211;49.124;9.152;2023-08-17T07:20:02;5.75;;;3.80;;
12296;SDS011;6211;49.124;9.152;2023-08-17T07:22:29;5.63;;;4.05;;
12296;SDS011;6211;49.124;9.152;2023-08-17T07:24:58;5.10;;;4.20;;
12296;SDS011;6211;49.124;9.152;2023-08-17T07:27:25;7.65;;;4.50;;
12296;SDS011;6211;49.124;9.152;2023-08-17T07:29:52;4.82;;;4.30;;
12296;SDS011;6211;49.124;9.152;2023-08-17T07:32:19;4.45;;;3.95;;
12296;SDS011;6211;49.124;9.152;2023-08-17T07:34:47;6.50;;;4.45;;
12296;SDS011;6211;49.124;9.152;2023-08-17T07:37:14;5.70;;;4.57;;
12296;SDS011;6211;49.124;9.152;2023-08-17T07:39:41;5.00;;;4.03;;
12296;SDS011;6211;49.124;9.152;2023-08-17T07:42:09;7.50;;;4.47;;
12296;SDS011;6211;49.124;9.152;2023-08-17T07:44:36;5.20;;;4.70;;
12296;SDS011;6211;49.124;9.152;2023-08-17T07:47:04;7.35;;;5.07;;
12296;SDS011;6211;49.124;9.152;2023-08-17T07:49:31;5.80;;;4.00;;
12296;SDS011;6211;49.124;9.152;2023-08-17T07:51:59;5.93;;;4.78;;
12296;SDS011;6211;49.124;9.152;2023-08-17T07:54:26;7.43;;;5.25;;
12296;SDS011;6211;49.124;9.152;2023-08-17T07:56:53;7.90;;;5.35;;
12296;SDS011;6211;49.124;9.152;2023-08-17T07:59:22;6.60;;;5.13;;
12296;SDS011;6211;49.124;9.152;2023-08-17T08:01:49;9.15;;;5.75;;
12296;SDS011;6211;49.124;9.152;2023-08-17T08:04:16;10.65;;;5.55;;
12296;SDS011;6211;49.124;9.152;2023-08-17T08:06:43;6.63;;;5.38;;
12296;SDS011;6211;49.124;9.152;2023-08-17T08:09:10;7.75;;;5.78;;
12296;SDS011;6211;49.124;9.152;2023-08-17T08:11:37;9.30;;;6.30;;
12296;SDS011;6211;49.124;9.152;2023-08-17T08:14:05;8.52;;;5.78;;
12296;SDS011;6211;49.124;9.152;2023-08-17T08:16:33;8.10;;;6.03;;
12296;SDS011;6211;49.124;9.152;2023-08-17T08:19:00;5.85;;;5.20;;
12296;SDS011;6211;49.124;9.152;2023-08-17T08:21:27;7.25;;;5.75;;
12296;SDS011;6211;49.124;9.152;2023-08-17T08:23:54;6.38;;;5.47;;
12296;SDS011;6211;49.124;9.152;2023-08-17T08:26:22;6.25;;;4.93;;
12296;SDS011;6211;49.124;9.152;2023-08-17T08:28:49;7.47;;;6.00;;
12296;SDS011;6211;49.124;9.152;2023-08-17T08:31:16;7.13;;;4.80;;
12296;SDS011;6211;49.124;9.152;2023-08-17T08:33:44;7.82;;;5.20;;
12296;SDS011;6211;49.124;9.152;2023-08-17T08:36:11;9.70;;;6.22;;
12296;SDS011;6211;49.124;9.152;2023-08-17T08:38:38;6.65;;;5.22;;
12296;SDS011;6211;49.124;9.152;2023-08-17T08:41:05;6.80;;;5.75;;
12296;SDS011;6211;49.124;9.152;2023-08-17T08:43:34;8.43;;;5.65;;
12296;SDS011;6211;49.124;9.152;2023-08-17T08:46:02;7.30;;;5.80;;
12296;SDS011;6211;49.124;9.152;2023-08-17T08:48:30;6.43;;;5.15;;
12296;SDS011;6211;49.124;9.152;2023-08-17T08:53:35;7.65;;;5.13;;
12296;SDS011;6211;49.124;9.152;2023-08-17T08:56:04;8.68;;;5.70;;
12296;SDS011;6211;49.124;9.152;2023-08-17T08:58:31;6.25;;;5.28;;
12296;SDS011;6211;49.124;9.152;2023-08-17T09:01:00;7.15;;;5.95;;
12296;SDS011;6211;49.124;9.152;2023-08-17T09:03:27;8.02;;;6.47;;
12296;SDS011;6211;49.124;9.152;2023-08-17T09:05:55;8.40;;;6.32;;
12296;SDS011;6211;49.124;9.152;2023-08-17T09:08:25;6.93;;;5.45;;
12296;SDS011;6211;49.124;9.152;2023-08-17T09:10:55;6.03;;;5.10;;
12296;SDS011;6211;49.124;9.152;2023-08-17T09:13:22;8.52;;;6.72;;
12296;SDS011;6211;49.124;9.152;2023-08-17T09:15:49;7.07;;;6.00;;
12296;SDS011;6211;49.124;9.152;2023-08-17T09:18:16;7.25;;;6.20;;
12296;SDS011;6211;49.124;9.152;2023-08-17T09:20:44;6.90;;;5.30;;
12296;SDS011;6211;49.124;9.152;2023-08-17T09:23:11;5.60;;;5.05;;
12296;SDS011;6211;49.124;9.152;2023-08-17T09:25:40;7.78;;;6.07;;
12296;SDS011;6211;49.124;9.152;2023-08-17T09:28:09;7.22;;;5.90;;
12296;SDS011;6211;49.124;9.152;2023-08-17T09:33:23;5.90;;;5.07;;
12296;SDS011;6211;49.124;9.152;2023-08-17T09:35:50;8.52;;;6.18;;
12296;SDS011;6211;49.124;9.152;2023-08-17T09:38:18;7.47;;;5.57;;
12296;SDS011;6211;49.124;9.152;2023-08-17T09:40:44;8.88;;;5.72;;
12296;SDS011;6211;49.124;9.152;2023-08-17T09:43:13;6.82;;;5.40;;
12296;SDS011;6211;49.124;9.152;2023-08-17T09:45:40;5.60;;;5.10;;
12296;SDS011;6211;49.124;9.152;2023-08-17T09:48:09;5.72;;;5.13;;
12296;SDS011;6211;49.124;9.152;2023-08-17T09:50:36;7.30;;;6.03;;
12296;SDS011;6211;49.124;9.152;2023-08-17T09:53:03;7.28;;;6.30;;
12296;SDS011;6211;49.124;9.152;2023-08-17T09:55:31;7.53;;;6.65;;
12296;SDS011;6211;49.124;9.152;2023-08-17T09:57:59;8.15;;;5.85;;
12296;SDS011;6211;49.124;9.152;2023-08-17T10:00:27;8.23;;;5.70;;
12296;SDS011;6211;49.124;9.152;2023-08-17T10:02:55;7.57;;;6.00;;
12296;SDS011;6211;49.124;9.152;2023-08-17T10:05:22;7.28;;;6.47;;
12296;SDS011;6211;49.124;9.152;2023-08-17T10:07:51;7.00;;;5.50;;
12296;SDS011;6211;49.124;9.152;2023-08-17T10:10:21;6.55;;;5.85;;
12296;SDS011;6211;49.124;9.152;2023-08-17T10:12:51;6.60;;;5.88;;
12296;SDS011;6211;49.124;9.152;2023-08-17T10:15:20;8.23;;;5.72;;
12296;SDS011;6211;49.124;9.152;2023-08-17T10:17:54;7.15;;;6.45;;
12296;SDS011;6211;49.124;9.152;2023-08-17T10:20:22;5.97;;;5.00;;
12296;SDS011;6211;49.124;9.152;2023-08-17T10:22:51;5.88;;;5.20;;
12296;SDS011;6211;49.124;9.152;2023-08-17T10:25:24;7.25;;;5.80;;
12296;SDS011;6211;49.124;9.152;2023-08-17T10:27:52;8.15;;;5.28;;
12296;SDS011;6211;49.124;9.152;2023-08-17T10:30:21;6.97;;;5.68;;
12296;SDS011;6211;49.124;9.152;2023-08-17T10:32:49;5.57;;;5.05;;
12296;SDS011;6211;49.124;9.152;2023-08-17T10:35:16;6.03;;;5.43;;
12296;SDS011;6211;49.124;9.152;2023-08-17T10:37:44;6.15;;;5.55;;
12296;SDS011;6211;49.124;9.152;2023-08-17T10:40:11;6.47;;;5.32;;
12296;SDS011;6211;49.124;9.152;2023-08-17T10:42:38;7.72;;;4.97;;
12296;SDS011;6211;49.124;9.152;2023-08-17T10:47:49;4.68;;;4.28;;
12296;SDS011;6211;49.124;9.152;2023-08-17T10:50:20;5.55;;;4.90;;
12296;SDS011;6211;49.124;9.152;2023-08-17T10:52:48;6.13;;;4.93;;
12296;SDS011;6211;49.124;9.152;2023-08-17T10:55:15;8.30;;;4.50;;
12296;SDS011;6211;49.124;9.152;2023-08-17T10:57:43;5.32;;;4.47;;
12296;SDS011;6211;49.124;9.152;2023-08-17T11:00:14;6.10;;;5.00;;
12296;SDS011;6211;49.124;9.152;2023-08-17T11:02:43;5.50;;;4.60;;
12296;SDS011;6211;49.124;9.152;2023-08-17T11:05:11;4.97;;;4.47;;
12296;SDS011;6211;49.124;9.152;2023-08-17T11:07:39;5.80;;;4.55;;
12296;SDS011;6211;49.124;9.152;2023-08-17T11:10:26;5.88;;;4.68;;
12296;SDS011;6211;49.124;9.152;2023-08-17T11:12:54;4.95;;;4.45;;
12296;SDS011;6211;49.124;9.152;2023-08-17T11:15:24;6.30;;;5.10;;
12296;SDS011;6211;49.124;9.152;2023-08-17T11:17:52;5.70;;;5.13;;
12296;SDS011;6211;49.124;9.152;2023-08-17T11:20:22;4.65;;;4.13;;
12296;SDS011;6211;49.124;9.152;2023-08-17T11:22:49;5.00;;;4.20;;
12296;SDS011;6211;49.124;9.152;2023-08-17T11:25:17;5.43;;;4.32;;
12296;SDS011;6211;49.124;9.152;2023-08-17T11:27:44;5.90;;;5.03;;
12296;SDS011;6211;49.124;9.152;2023-08-17T11:30:12;4.50;;;4.10;;
12296;SDS011;6211;49.124;9.152;2023-08-17T11:32:39;8.65;;;4.93;;
12296;SDS011;6211;49.124;9.152;2023-08-17T11:35:06;5.18;;;4.40;;
12296;SDS011;6211;49.124;9.152;2023-08-17T11:37:35;5.13;;;3.80;;
12296;SDS011;6211;49.124;9.152;2023-08-17T11:40:02;6.82;;;4.95;;
12296;SDS011;6211;49.124;9.152;2023-08-17T11:42:30;6.38;;;4.68;;
12296;SDS011;6211;49.124;9.152;2023-08-17T11:44:57;6.43;;;4.30;;
12296;SDS011;6211;49.124;9.152;2023-08-17T11:47:24;3.70;;;3.40;;
12296;SDS011;6211;49.124;9.152;2023-08-17T11:49:58;3.75;;;3.45;;
12296;SDS011;6211;49.124;9.152;2023-08-17T11:52:25;3.55;;;3.25;;
12296;SDS011;6211;49.124;9.152;2023-08-17T11:54:55;4.18;;;3.75;;
12296;SDS011;6211;49.124;9.152;2023-08-17T11:57:23;3.65;;;3.30;;
12296;SDS011;6211;49.124;9.152;2023-08-17T11:59:52;3.92;;;3.28;;
12296;SDS011;6211;49.124;9.152;2023-08-17T12:02:20;3.78;;;3.45;;
12296;SDS011;6211;49.124;9.152;2023-08-17T12:04:47;3.75;;;3.45;;
12296;SDS011;6211;49.124;9.152;2023-08-17T12:07:14;4.45;;;3.38;;
12296;SDS011;6211;49.124;9.152;2023-08-17T12:09:42;4.03;;;3.50;;
12296;SDS011;6211;49.124;9.152;2023-08-17T12:12:10;3.10;;;2.88;;
12296;SDS011;6211;49.124;9.152;2023-08-17T12:14:40;3.25;;;3.03;;
12296;SDS011;6211;49.124;9.152;2023-08-17T12:17:13;3.53;;;3.22;;
12296;SDS011;6211;49.124;9.152;2023-08-17T12:19:41;3.92;;;3.47;;
12296;SDS011;6211;49.124;9.152;2023-08-17T12:22:08;4.47;;;3.53;;
12296;SDS011;6211;49.124;9.152;2023-08-17T12:24:35;3.42;;;3.10;;
12296;SDS011;6211;49.124;9.152;2023-08-17T12:27:02;8.63;;;3.40;;
12296;SDS011;6211;49.124;9.152;2023-08-17T12:29:31;3.47;;;3.20;;
12296;SDS011;6211;49.124;9.152;2023-08-17T12:31:58;3.72;;;3.42;;
12296;SDS011;6211;49.124;9.152;2023-08-17T12:34:25;4.25;;;3.88;;
12296;SDS011;6211;49.124;9.152;2023-08-17T12:36:52;3.90;;;3.47;;
12296;SDS011;6211;49.124;9.152;2023-08-17T12:39:19;4.30;;;3.72;;
12296;SDS011;6211;49.124;9.152;2023-08-17T12:41:46;4.07;;;3.67;;
12296;SDS011;6211;49.124;9.152;2023-08-17T12:44:13;4.53;;;3.90;;
12296;SDS011;6211;49.124;9.152;2023-08-17T12:46:42;3.50;;;3.20;;
12296;SDS011;6211;49.124;9.152;2023-08-17T12:49:09;7.22;;;3.47;;
12296;SDS011;6211;49.124;9.152;2023-08-17T12:51:36;5.00;;;3.42;;
12296;SDS011;6211;49.124;9.152;2023-08-17T12:54:04;4.50;;;3.95;;
12296;SDS011;6211;49.124;9.152;2023-08-17T12:56:31;4.60;;;3.60;;
12296;SDS011;6211;49.124;9.152;2023-08-17T12:58:58;3.25;;;2.95;;
12296;SDS011;6211;49.124;9.152;2023-08-17T13:01:25;3.58;;;3.28;;
12296;SDS011;6211;49.124;9.152;2023-08-17T13:03:54;4.03;;;3.47;;
12296;SDS011;6211;49.124;9.152;2023-08-17T13:06:21;5.82;;;3.50;;
12296;SDS011;6211;49.124;9.152;2023-08-17T13:08:48;3.70;;;3.40;;
12296;SDS011;6211;49.124;9.152;2023-08-17T13:11:15;5.00;;;3.47;;
12296;SDS011;6211;49.124;9.152;2023-08-17T13:13:42;4.45;;;4.05;;
12296;SDS011;6211;49.124;9.152;2023-08-17T13:16:09;4.20;;;3.80;;
12296;SDS011;6211;49.124;9.152;2023-08-17T13:18:37;4.15;;;3.75;;
12296;SDS011;6211;49.124;9.152;2023-08-17T13:21:05;4.25;;;3.40;;
12296;SDS011;6211;49.124;9.152;2023-08-17T13:23:31;4.22;;;3.83;;
12296;SDS011;6211;49.124;9.152;2023-08-17T13:25:58;4.57;;;3.58;;
12296;SDS011;6211;49.124;9.152;2023-08-17T13:28:25;5.95;;;3.58;;
12296;SDS011;6211;49.124;9.152;2023-08-17T13:30:52;4.70;;;4.00;;
12296;SDS011;6211;49.124;9.152;2023-08-17T13:33:20;5.25;;;3.40;;
12296;SDS011;6211;49.124;9.152;2023-08-17T13:35:47;4.43;;;3.58;;
12296;SDS011;6211;49.124;9.152;2023-08-17T13:38:15;4.10;;;3.65;;
12296;SDS011;6211;49.124;9.152;2023-08-17T13:40:42;4.95;;;3.60;;
12296;SDS011;6211;49.124;9.152;2023-08-17T13:43:10;3.92;;;3.58;;
12296;SDS011;6211;49.124;9.152;2023-08-17T13:45:38;7.15;;;4.07;;
12296;SDS011;6211;49.124;9.152;2023-08-17T13:48:05;5.32;;;4.07;;
12296;SDS011;6211;49.124;9.152;2023-08-17T13:50:33;4.30;;;3.90;;
12296;SDS011;6211;49.124;9.152;2023-08-17T13:53:00;5.60;;;4.03;;
12296;SDS011;6211;49.124;9.152;2023-08-17T13:55:28;4.82;;;3.80;;
12296;SDS011;6211;49.124;9.152;2023-08-17T13:57:55;6.03;;;4.18;;
12296;SDS011;6211;49.124;9.152;2023-08-17T14:00:23;5.43;;;3.95;;
12296;SDS011;6211;49.124;9.152;2023-08-17T14:02:50;5.55;;;4.75;;
12296;SDS011;6211;49.124;9.152;2023-08-17T14:05:17;4.53;;;3.58;;
12296;SDS011;6211;49.124;9.152;2023-08-17T14:07:45;4.45;;;3.97;;
12296;SDS011;6211;49.124;9.152;2023-08-17T14:10:12;7.05;;;3.83;;
12296;SDS011;6211;49.124;9.152;2023-08-17T14:12:40;5.25;;;3.97;;
12296;SDS011;6211;49.124;9.152;2023-08-17T14:15:07;4.28;;;3.88;;
12296;SDS011;6211;49.124;9.152;2023-08-17T14:17:35;4.30;;;3.90;;
12296;SDS011;6211;49.124;9.152;2023-08-17T14:20:02;3.63;;;3.33;;
12296;SDS011;6211;49.124;9.152;2023-08-17T14:22:29;4.03;;;3.63;;
12296;SDS011;6211;49.124;9.152;2023-08-17T14:24:57;4.88;;;4.05;;
12296;SDS011;6211;49.124;9.152;2023-08-17T14:27:24;4.15;;;3.75;;
12296;SDS011;6211;49.124;9.152;2023-08-17T14:29:52;4.18;;;3.78;;
12296;SDS011;6211;49.124;9.152;2023-08-17T14:32:19;3.90;;;3.50;;
12296;SDS011;6211;49.124;9.152;2023-08-17T14:34:47;4.32;;;3.92;;
12296;SDS011;6211;49.124;9.152;2023-08-17T14:37:14;4.28;;;3.58;;
12296;SDS011;6211;49.124;9.152;2023-08-17T14:39:41;4.72;;;4.22;;
12296;SDS011;6211;49.124;9.152;2023-08-17T14:42:08;4.40;;;3.80;;
12296;SDS011;6211;49.124;9.152;2023-08-17T14:44:35;5.07;;;4.05;;
12296;SDS011;6211;49.124;9.152;2023-08-17T14:47:04;3.75;;;3.35;;
12296;SDS011;6211;49.124;9.152;2023-08-17T14:49:31;3.90;;;3.60;;
12296;SDS011;6211;49.124;9.152;2023-08-17T14:51:58;3.50;;;3.20;;
12296;SDS011;6211;49.124;9.152;2023-08-17T14:54:25;3.95;;;3.45;;
12296;SDS011;6211;49.124;9.152;2023-08-17T14:56:52;6.60;;;4.00;;
12296;SDS011;6211;49.124;9.152;2023-08-17T14:59:19;3.95;;;3.60;;
12296;SDS011;6211;49.124;9.152;2023-08-17T15:01:47;3.85;;;3.50;;
12296;SDS011;6211;49.124;9.152;2023-08-17T15:04:17;3.33;;;3.03;;
12296;SDS011;6211;49.124;9.152;2023-08-17T15:06:44;3.72;;;3.42;;
12296;SDS011;6211;49.124;9.152;2023-08-17T15:09:11;4.80;;;3.33;;
12296;SDS011;6211;49.124;9.152;2023-08-17T15:11:38;3.70;;;3.38;;